Terminal Aerodrome Forecast
Issued by NWS Houston/Galveston, TX

Home | Current Version | Previous Version | Text Only | Print | Product List | Glossary On
Versions: 1 2 3 4 5 6 7 8 9 10 11 12 13 14 15 16 17 18
000
FTUS44 KHGX 252040 AAA
TAFGLS
TAF AMD
KGLS 252040Z 2521/2618 18010KT P6SM SCT250
     FM252300 18010KT P6SM FEW030 BKN250
     FM260200 21008KT P6SM VCSH SCT025 BKN060
      TEMPO 2602/2605 SHRA
     FM260700 35018KT P6SM SCT025 BKN040
     FM261400 34013KT P6SM FEW070=

USA.gov is the U.S. government's official web portal to all federal, state and local government web resources and services.